sensor_id;sensor_type;location;lat;lon;timestamp;P1;durP1;ratioP1;P2;durP2;ratioP2
60935;SDS011;46804;51.786;19.520;2024-01-15T00:03:17;24.20;;;13.55;;
60935;SDS011;46804;51.786;19.520;2024-01-15T00:07:18;14.80;;;8.68;;
60935;SDS011;46804;51.786;19.520;2024-01-15T00:11:19;16.75;;;9.20;;
60935;SDS011;46804;51.786;19.520;2024-01-15T00:15:20;24.95;;;11.95;;
60935;SDS011;46804;51.786;19.520;2024-01-15T00:19:21;16.67;;;10.80;;
60935;SDS011;46804;51.786;19.520;2024-01-15T00:23:22;23.85;;;9.63;;
60935;SDS011;46804;51.786;19.520;2024-01-15T00:27:23;22.90;;;12.63;;
60935;SDS011;46804;51.786;19.520;2024-01-15T00:31:24;10.38;;;6.93;;
60935;SDS011;46804;51.786;19.520;2024-01-15T00:35:25;24.10;;;12.63;;
60935;SDS011;46804;51.786;19.520;2024-01-15T00:39:25;22.75;;;11.70;;
60935;SDS011;46804;51.786;19.520;2024-01-15T00:43:26;19.45;;;11.57;;
60935;SDS011;46804;51.786;19.520;2024-01-15T00:47:27;14.90;;;8.90;;
60935;SDS011;46804;51.786;19.520;2024-01-15T00:51:28;17.20;;;9.30;;
60935;SDS011;46804;51.786;19.520;2024-01-15T00:55:28;24.58;;;12.70;;
60935;SDS011;46804;51.786;19.520;2024-01-15T00:59:30;14.25;;;8.88;;
60935;SDS011;46804;51.786;19.520;2024-01-15T01:03:31;21.90;;;12.20;;
60935;SDS011;46804;51.786;19.520;2024-01-15T01:07:32;23.80;;;10.85;;
60935;SDS011;46804;51.786;19.520;2024-01-15T01:11:32;15.68;;;9.60;;
60935;SDS011;46804;51.786;19.520;2024-01-15T01:15:33;12.27;;;6.85;;
60935;SDS011;46804;51.786;19.520;2024-01-15T01:19:34;21.08;;;9.40;;
60935;SDS011;46804;51.786;19.520;2024-01-15T01:23:34;18.25;;;8.85;;
60935;SDS011;46804;51.786;19.520;2024-01-15T01:27:35;15.00;;;9.57;;
60935;SDS011;46804;51.786;19.520;2024-01-15T01:31:36;22.33;;;8.30;;
60935;SDS011;46804;51.786;19.520;2024-01-15T01:35:42;13.07;;;8.18;;
60935;SDS011;46804;51.786;19.520;2024-01-15T01:39:44;11.18;;;6.35;;
60935;SDS011;46804;51.786;19.520;2024-01-15T01:43:45;15.45;;;7.32;;
60935;SDS011;46804;51.786;19.520;2024-01-15T01:47:45;17.05;;;7.82;;
60935;SDS011;46804;51.786;19.520;2024-01-15T01:51:46;19.38;;;8.30;;
60935;SDS011;46804;51.786;19.520;2024-01-15T01:55:48;16.13;;;7.68;;
60935;SDS011;46804;51.786;19.520;2024-01-15T01:59:48;12.68;;;7.88;;
60935;SDS011;46804;51.786;19.520;2024-01-15T02:03:49;16.00;;;9.90;;
60935;SDS011;46804;51.786;19.520;2024-01-15T02:07:50;14.30;;;7.55;;
60935;SDS011;46804;51.786;19.520;2024-01-15T02:11:51;12.55;;;8.25;;
60935;SDS011;46804;51.786;19.520;2024-01-15T02:15:52;17.83;;;9.38;;
60935;SDS011;46804;51.786;19.520;2024-01-15T02:19:53;14.70;;;7.78;;
60935;SDS011;46804;51.786;19.520;2024-01-15T02:23:54;17.98;;;7.20;;
60935;SDS011;46804;51.786;19.520;2024-01-15T02:27:55;19.50;;;10.70;;
60935;SDS011;46804;51.786;19.520;2024-01-15T02:31:56;13.73;;;7.95;;
60935;SDS011;46804;51.786;19.520;2024-01-15T02:35:57;14.95;;;8.38;;
60935;SDS011;46804;51.786;19.520;2024-01-15T02:39:58;24.90;;;11.02;;
60935;SDS011;46804;51.786;19.520;2024-01-15T02:43:58;20.63;;;10.18;;
60935;SDS011;46804;51.786;19.520;2024-01-15T02:47:59;23.02;;;9.18;;
60935;SDS011;46804;51.786;19.520;2024-01-15T02:52:00;17.05;;;9.15;;
60935;SDS011;46804;51.786;19.520;2024-01-15T02:56:01;23.58;;;12.48;;
60935;SDS011;46804;51.786;19.520;2024-01-15T03:00:01;27.98;;;15.95;;
60935;SDS011;46804;51.786;19.520;2024-01-15T03:04:04;23.35;;;11.38;;
60935;SDS011;46804;51.786;19.520;2024-01-15T03:08:04;15.73;;;7.90;;
60935;SDS011;46804;51.786;19.520;2024-01-15T03:12:06;15.38;;;8.07;;
60935;SDS011;46804;51.786;19.520;2024-01-15T03:16:07;25.85;;;13.82;;
60935;SDS011;46804;51.786;19.520;2024-01-15T03:20:08;24.13;;;13.35;;
60935;SDS011;46804;51.786;19.520;2024-01-15T03:24:09;17.65;;;8.25;;
60935;SDS011;46804;51.786;19.520;2024-01-15T03:28:09;17.38;;;9.02;;
60935;SDS011;46804;51.786;19.520;2024-01-15T03:32:10;20.55;;;10.95;;
60935;SDS011;46804;51.786;19.520;2024-01-15T03:36:11;15.57;;;8.85;;
60935;SDS011;46804;51.786;19.520;2024-01-15T03:40:12;15.68;;;9.55;;
60935;SDS011;46804;51.786;19.520;2024-01-15T03:44:13;20.65;;;10.90;;
60935;SDS011;46804;51.786;19.520;2024-01-15T03:48:13;17.40;;;10.15;;
60935;SDS011;46804;51.786;19.520;2024-01-15T03:52:14;26.52;;;14.07;;
60935;SDS011;46804;51.786;19.520;2024-01-15T03:56:15;20.58;;;9.82;;
60935;SDS011;46804;51.786;19.520;2024-01-15T04:00:15;14.10;;;8.35;;
60935;SDS011;46804;51.786;19.520;2024-01-15T04:04:18;16.20;;;8.95;;
60935;SDS011;46804;51.786;19.520;2024-01-15T04:08:19;18.55;;;8.45;;
60935;SDS011;46804;51.786;19.520;2024-01-15T04:12:19;20.10;;;9.82;;
60935;SDS011;46804;51.786;19.520;2024-01-15T04:16:20;20.05;;;9.45;;
60935;SDS011;46804;51.786;19.520;2024-01-15T04:20:21;15.10;;;8.32;;
60935;SDS011;46804;51.786;19.520;2024-01-15T04:24:22;12.18;;;6.00;;
60935;SDS011;46804;51.786;19.520;2024-01-15T04:28:22;16.50;;;9.55;;
60935;SDS011;46804;51.786;19.520;2024-01-15T04:32:23;12.32;;;7.53;;
60935;SDS011;46804;51.786;19.520;2024-01-15T04:36:24;14.23;;;8.85;;
60935;SDS011;46804;51.786;19.520;2024-01-15T04:40:25;17.02;;;10.20;;
60935;SDS011;46804;51.786;19.520;2024-01-15T04:44:28;22.63;;;9.82;;
60935;SDS011;46804;51.786;19.520;2024-01-15T04:48:29;16.60;;;10.13;;
60935;SDS011;46804;51.786;19.520;2024-01-15T04:52:30;12.88;;;6.97;;
60935;SDS011;46804;51.786;19.520;2024-01-15T04:56:31;16.52;;;8.95;;
60935;SDS011;46804;51.786;19.520;2024-01-15T05:00:31;19.85;;;9.85;;
60935;SDS011;46804;51.786;19.520;2024-01-15T05:04:32;15.38;;;7.75;;
60935;SDS011;46804;51.786;19.520;2024-01-15T05:08:33;18.08;;;9.52;;
60935;SDS011;46804;51.786;19.520;2024-01-15T05:12:34;14.25;;;8.80;;
60935;SDS011;46804;51.786;19.520;2024-01-15T05:16:35;17.15;;;9.70;;
60935;SDS011;46804;51.786;19.520;2024-01-15T05:20:35;15.45;;;8.68;;
60935;SDS011;46804;51.786;19.520;2024-01-15T05:24:36;12.70;;;7.40;;
60935;SDS011;46804;51.786;19.520;2024-01-15T05:28:37;25.15;;;13.07;;
60935;SDS011;46804;51.786;19.520;2024-01-15T05:32:38;23.80;;;12.75;;
60935;SDS011;46804;51.786;19.520;2024-01-15T05:36:38;11.50;;;7.72;;
60935;SDS011;46804;51.786;19.520;2024-01-15T05:40:39;23.98;;;13.05;;
60935;SDS011;46804;51.786;19.520;2024-01-15T05:44:40;10.00;;;6.32;;
60935;SDS011;46804;51.786;19.520;2024-01-15T05:48:40;18.00;;;9.10;;
60935;SDS011;46804;51.786;19.520;2024-01-15T05:52:41;14.20;;;7.63;;
60935;SDS011;46804;51.786;19.520;2024-01-15T05:56:42;22.27;;;12.93;;
60935;SDS011;46804;51.786;19.520;2024-01-15T06:00:43;17.17;;;11.02;;
60935;SDS011;46804;51.786;19.520;2024-01-15T06:04:43;19.35;;;7.03;;
60935;SDS011;46804;51.786;19.520;2024-01-15T06:08:44;13.65;;;8.65;;
60935;SDS011;46804;51.786;19.520;2024-01-15T06:12:45;12.13;;;7.95;;
60935;SDS011;46804;51.786;19.520;2024-01-15T06:16:45;16.35;;;8.70;;
60935;SDS011;46804;51.786;19.520;2024-01-15T06:20:47;21.88;;;10.98;;
60935;SDS011;46804;51.786;19.520;2024-01-15T06:24:48;18.02;;;10.23;;
60935;SDS011;46804;51.786;19.520;2024-01-15T06:28:48;25.00;;;10.40;;
60935;SDS011;46804;51.786;19.520;2024-01-15T06:32:49;14.30;;;7.32;;
60935;SDS011;46804;51.786;19.520;2024-01-15T06:36:51;19.13;;;8.60;;
60935;SDS011;46804;51.786;19.520;2024-01-15T06:40:52;23.48;;;11.43;;
60935;SDS011;46804;51.786;19.520;2024-01-15T06:44:52;20.63;;;10.10;;
60935;SDS011;46804;51.786;19.520;2024-01-15T06:48:53;22.52;;;13.13;;
60935;SDS011;46804;51.786;19.520;2024-01-15T06:52:55;23.10;;;11.05;;
60935;SDS011;46804;51.786;19.520;2024-01-15T06:56:56;16.90;;;9.30;;
60935;SDS011;46804;51.786;19.520;2024-01-15T07:00:58;17.95;;;11.73;;
60935;SDS011;46804;51.786;19.520;2024-01-15T07:04:58;17.77;;;8.90;;
60935;SDS011;46804;51.786;19.520;2024-01-15T07:08:59;18.50;;;10.07;;
60935;SDS011;46804;51.786;19.520;2024-01-15T07:13:00;15.45;;;7.78;;
60935;SDS011;46804;51.786;19.520;2024-01-15T07:17:01;18.10;;;8.43;;
60935;SDS011;46804;51.786;19.520;2024-01-15T07:21:01;14.73;;;8.57;;
60935;SDS011;46804;51.786;19.520;2024-01-15T07:25:03;12.88;;;8.27;;
60935;SDS011;46804;51.786;19.520;2024-01-15T07:29:05;11.57;;;7.97;;
60935;SDS011;46804;51.786;19.520;2024-01-15T07:33:05;18.75;;;9.00;;
60935;SDS011;46804;51.786;19.520;2024-01-15T07:37:06;12.57;;;7.88;;
60935;SDS011;46804;51.786;19.520;2024-01-15T07:41:07;11.90;;;7.32;;
60935;SDS011;46804;51.786;19.520;2024-01-15T07:45:11;9.40;;;6.30;;
60935;SDS011;46804;51.786;19.520;2024-01-15T07:49:12;8.50;;;5.72;;
60935;SDS011;46804;51.786;19.520;2024-01-15T07:53:13;9.73;;;5.90;;
60935;SDS011;46804;51.786;19.520;2024-01-15T07:57:14;9.52;;;4.75;;
60935;SDS011;46804;51.786;19.520;2024-01-15T08:01:14;8.48;;;5.55;;
60935;SDS011;46804;51.786;19.520;2024-01-15T08:05:15;12.93;;;5.93;;
60935;SDS011;46804;51.786;19.520;2024-01-15T08:09:16;7.53;;;4.10;;
60935;SDS011;46804;51.786;19.520;2024-01-15T08:13:17;8.75;;;5.22;;
60935;SDS011;46804;51.786;19.520;2024-01-15T08:17:18;9.43;;;4.57;;
60935;SDS011;46804;51.786;19.520;2024-01-15T08:21:19;10.00;;;6.13;;
60935;SDS011;46804;51.786;19.520;2024-01-15T08:25:21;9.83;;;4.83;;
60935;SDS011;46804;51.786;19.520;2024-01-15T08:29:22;9.23;;;5.50;;
60935;SDS011;46804;51.786;19.520;2024-01-15T08:33:25;7.77;;;4.23;;
60935;SDS011;46804;51.786;19.520;2024-01-15T08:37:25;10.38;;;5.20;;
60935;SDS011;46804;51.786;19.520;2024-01-15T08:41:26;9.82;;;6.68;;
60935;SDS011;46804;51.786;19.520;2024-01-15T08:45:27;8.52;;;4.82;;
60935;SDS011;46804;51.786;19.520;2024-01-15T08:49:28;12.52;;;6.60;;
60935;SDS011;46804;51.786;19.520;2024-01-15T08:53:28;13.43;;;7.05;;
60935;SDS011;46804;51.786;19.520;2024-01-15T08:57:29;12.40;;;6.87;;
60935;SDS011;46804;51.786;19.520;2024-01-15T09:01:29;11.63;;;6.43;;
60935;SDS011;46804;51.786;19.520;2024-01-15T09:05:31;14.27;;;6.68;;
60935;SDS011;46804;51.786;19.520;2024-01-15T09:09:32;23.17;;;9.07;;
60935;SDS011;46804;51.786;19.520;2024-01-15T09:13:33;31.95;;;13.55;;
60935;SDS011;46804;51.786;19.520;2024-01-15T09:17:34;20.17;;;9.73;;
60935;SDS011;46804;51.786;19.520;2024-01-15T09:21:34;17.70;;;8.82;;
60935;SDS011;46804;51.786;19.520;2024-01-15T09:25:35;13.27;;;7.65;;
60935;SDS011;46804;51.786;19.520;2024-01-15T09:29:36;9.77;;;6.10;;
60935;SDS011;46804;51.786;19.520;2024-01-15T09:33:46;15.77;;;6.68;;
60935;SDS011;46804;51.786;19.520;2024-01-15T09:37:46;13.75;;;7.50;;
60935;SDS011;46804;51.786;19.520;2024-01-15T09:41:47;16.48;;;7.75;;
60935;SDS011;46804;51.786;19.520;2024-01-15T09:45:49;9.43;;;5.78;;
60935;SDS011;46804;51.786;19.520;2024-01-15T09:49:50;18.60;;;8.88;;
60935;SDS011;46804;51.786;19.520;2024-01-15T09:53:51;13.32;;;7.10;;
60935;SDS011;46804;51.786;19.520;2024-01-15T09:57:52;20.05;;;8.50;;
60935;SDS011;46804;51.786;19.520;2024-01-15T10:01:56;23.20;;;9.27;;
60935;SDS011;46804;51.786;19.520;2024-01-15T10:05:59;9.27;;;5.40;;
60935;SDS011;46804;51.786;19.520;2024-01-15T10:10:00;5.53;;;4.10;;
60935;SDS011;46804;51.786;19.520;2024-01-15T10:14:01;12.27;;;4.90;;
60935;SDS011;46804;51.786;19.520;2024-01-15T10:18:05;13.32;;;7.25;;
60935;SDS011;46804;51.786;19.520;2024-01-15T10:22:06;6.82;;;4.35;;
60935;SDS011;46804;51.786;19.520;2024-01-15T10:26:08;11.00;;;4.73;;
60935;SDS011;46804;51.786;19.520;2024-01-15T10:30:09;10.98;;;5.88;;
60935;SDS011;46804;51.786;19.520;2024-01-15T10:34:12;16.50;;;8.73;;
60935;SDS011;46804;51.786;19.520;2024-01-15T10:38:13;13.40;;;7.22;;
60935;SDS011;46804;51.786;19.520;2024-01-15T10:42:14;13.48;;;5.75;;
60935;SDS011;46804;51.786;19.520;2024-01-15T10:46:14;11.05;;;6.00;;
60935;SDS011;46804;51.786;19.520;2024-01-15T10:50:16;11.52;;;5.10;;
60935;SDS011;46804;51.786;19.520;2024-01-15T10:54:17;17.80;;;7.60;;
60935;SDS011;46804;51.786;19.520;2024-01-15T10:58:18;12.55;;;6.05;;
60935;SDS011;46804;51.786;19.520;2024-01-15T11:02:20;14.32;;;7.22;;
60935;SDS011;46804;51.786;19.520;2024-01-15T11:06:22;13.55;;;5.85;;
60935;SDS011;46804;51.786;19.520;2024-01-15T11:14:44;9.98;;;5.53;;
60935;SDS011;46804;51.786;19.520;2024-01-15T11:22:56;13.82;;;6.10;;
60935;SDS011;46804;51.786;19.520;2024-01-15T11:26:59;12.00;;;5.20;;
60935;SDS011;46804;51.786;19.520;2024-01-15T11:31:00;14.02;;;6.93;;
60935;SDS011;46804;51.786;19.520;2024-01-15T11:35:01;20.02;;;9.00;;
60935;SDS011;46804;51.786;19.520;2024-01-15T11:39:39;22.55;;;9.55;;
60935;SDS011;46804;51.786;19.520;2024-01-15T11:43:29;14.85;;;6.47;;
60935;SDS011;46804;51.786;19.520;2024-01-15T11:47:44;25.58;;;9.23;;
60935;SDS011;46804;51.786;19.520;2024-01-15T11:52:04;19.02;;;8.63;;
60935;SDS011;46804;51.786;19.520;2024-01-15T11:56:06;15.60;;;6.00;;
60935;SDS011;46804;51.786;19.520;2024-01-15T12:00:17;29.45;;;9.13;;
60935;SDS011;46804;51.786;19.520;2024-01-15T12:04:20;43.92;;;13.05;;
60935;SDS011;46804;51.786;19.520;2024-01-15T12:08:22;24.20;;;7.32;;
60935;SDS011;46804;51.786;19.520;2024-01-15T12:12:29;15.00;;;5.57;;
60935;SDS011;46804;51.786;19.520;2024-01-15T12:16:40;26.65;;;10.05;;
60935;SDS011;46804;51.786;19.520;2024-01-15T12:20:41;17.60;;;7.63;;
60935;SDS011;46804;51.786;19.520;2024-01-15T12:24:43;11.95;;;5.85;;
60935;SDS011;46804;51.786;19.520;2024-01-15T12:28:44;25.98;;;7.40;;
60935;SDS011;46804;51.786;19.520;2024-01-15T12:32:44;19.38;;;7.07;;
60935;SDS011;46804;51.786;19.520;2024-01-15T12:36:47;19.05;;;7.38;;
60935;SDS011;46804;51.786;19.520;2024-01-15T12:40:48;11.18;;;5.75;;
60935;SDS011;46804;51.786;19.520;2024-01-15T12:44:49;9.95;;;4.90;;
60935;SDS011;46804;51.786;19.520;2024-01-15T12:48:50;26.60;;;9.07;;
60935;SDS011;46804;51.786;19.520;2024-01-15T12:52:50;21.90;;;7.68;;
60935;SDS011;46804;51.786;19.520;2024-01-15T12:56:51;32.28;;;11.82;;
60935;SDS011;46804;51.786;19.520;2024-01-15T13:00:53;39.05;;;12.88;;
60935;SDS011;46804;51.786;19.520;2024-01-15T13:04:53;33.35;;;10.95;;
60935;SDS011;46804;51.786;19.520;2024-01-15T13:08:55;39.25;;;13.23;;
60935;SDS011;46804;51.786;19.520;2024-01-15T13:12:56;45.47;;;13.52;;
60935;SDS011;46804;51.786;19.520;2024-01-15T13:16:58;52.50;;;16.88;;
60935;SDS011;46804;51.786;19.520;2024-01-15T13:21:00;26.00;;;6.45;;
60935;SDS011;46804;51.786;19.520;2024-01-15T13:25:01;20.08;;;9.10;;
60935;SDS011;46804;51.786;19.520;2024-01-15T13:29:02;35.08;;;13.00;;
60935;SDS011;46804;51.786;19.520;2024-01-15T13:33:06;16.70;;;7.18;;
60935;SDS011;46804;51.786;19.520;2024-01-15T13:37:08;18.48;;;8.48;;
60935;SDS011;46804;51.786;19.520;2024-01-15T13:41:10;13.60;;;6.40;;
60935;SDS011;46804;51.786;19.520;2024-01-15T13:45:11;25.17;;;11.85;;
60935;SDS011;46804;51.786;19.520;2024-01-15T13:49:15;19.63;;;8.82;;
60935;SDS011;46804;51.786;19.520;2024-01-15T13:53:16;25.58;;;10.85;;
60935;SDS011;46804;51.786;19.520;2024-01-15T13:57:17;20.60;;;9.82;;
60935;SDS011;46804;51.786;19.520;2024-01-15T14:01:20;27.50;;;11.13;;
60935;SDS011;46804;51.786;19.520;2024-01-15T14:05:21;26.08;;;8.13;;
60935;SDS011;46804;51.786;19.520;2024-01-15T14:09:22;19.77;;;9.32;;
60935;SDS011;46804;51.786;19.520;2024-01-15T14:13:23;18.98;;;7.30;;
60935;SDS011;46804;51.786;19.520;2024-01-15T14:17:24;13.40;;;6.47;;
60935;SDS011;46804;51.786;19.520;2024-01-15T14:21:25;14.20;;;5.80;;
60935;SDS011;46804;51.786;19.520;2024-01-15T14:25:26;12.93;;;5.55;;
60935;SDS011;46804;51.786;19.520;2024-01-15T14:29:27;9.02;;;5.10;;
60935;SDS011;46804;51.786;19.520;2024-01-15T14:33:28;11.35;;;5.75;;
60935;SDS011;46804;51.786;19.520;2024-01-15T14:37:29;11.90;;;4.78;;
60935;SDS011;46804;51.786;19.520;2024-01-15T14:41:29;14.70;;;6.75;;
60935;SDS011;46804;51.786;19.520;2024-01-15T14:45:30;8.70;;;3.70;;
60935;SDS011;46804;51.786;19.520;2024-01-15T14:49:32;6.05;;;3.13;;
60935;SDS011;46804;51.786;19.520;2024-01-15T14:53:34;9.88;;;5.13;;
60935;SDS011;46804;51.786;19.520;2024-01-15T14:57:36;11.10;;;5.93;;
60935;SDS011;46804;51.786;19.520;2024-01-15T15:01:37;9.73;;;6.25;;
60935;SDS011;46804;51.786;19.520;2024-01-15T15:05:40;10.13;;;5.20;;
60935;SDS011;46804;51.786;19.520;2024-01-15T15:09:42;16.45;;;8.05;;
60935;SDS011;46804;51.786;19.520;2024-01-15T15:13:43;14.35;;;5.28;;
60935;SDS011;46804;51.786;19.520;2024-01-15T15:17:44;15.43;;;5.65;;
60935;SDS011;46804;51.786;19.520;2024-01-15T15:21:45;13.70;;;4.53;;
60935;SDS011;46804;51.786;19.520;2024-01-15T15:25:46;12.45;;;5.70;;
60935;SDS011;46804;51.786;19.520;2024-01-15T15:29:46;10.85;;;5.70;;
60935;SDS011;46804;51.786;19.520;2024-01-15T15:33:48;8.80;;;4.85;;
60935;SDS011;46804;51.786;19.520;2024-01-15T15:37:49;12.00;;;4.68;;
60935;SDS011;46804;51.786;19.520;2024-01-15T15:41:50;7.50;;;4.32;;
60935;SDS011;46804;51.786;19.520;2024-01-15T15:45:50;10.35;;;5.22;;
60935;SDS011;46804;51.786;19.520;2024-01-15T15:49:51;15.93;;;5.75;;
60935;SDS011;46804;51.786;19.520;2024-01-15T15:53:51;11.13;;;5.30;;
60935;SDS011;46804;51.786;19.520;2024-01-15T15:57:52;13.10;;;4.90;;
60935;SDS011;46804;51.786;19.520;2024-01-15T16:01:53;11.57;;;5.15;;
60935;SDS011;46804;51.786;19.520;2024-01-15T16:05:54;7.40;;;5.38;;
60935;SDS011;46804;51.786;19.520;2024-01-15T16:09:55;14.38;;;6.75;;
60935;SDS011;46804;51.786;19.520;2024-01-15T16:13:55;10.32;;;4.97;;
60935;SDS011;46804;51.786;19.520;2024-01-15T16:17:56;14.18;;;6.40;;
60935;SDS011;46804;51.786;19.520;2024-01-15T16:21:58;6.97;;;4.50;;
60935;SDS011;46804;51.786;19.520;2024-01-15T16:25:59;9.75;;;4.25;;
60935;SDS011;46804;51.786;19.520;2024-01-15T16:30:00;12.32;;;6.28;;
60935;SDS011;46804;51.786;19.520;2024-01-15T16:34:01;11.40;;;3.85;;
60935;SDS011;46804;51.786;19.520;2024-01-15T16:38:02;10.95;;;4.70;;
60935;SDS011;46804;51.786;19.520;2024-01-15T16:42:03;11.15;;;6.28;;
60935;SDS011;46804;51.786;19.520;2024-01-15T16:46:04;12.60;;;6.38;;
60935;SDS011;46804;51.786;19.520;2024-01-15T16:50:05;12.55;;;6.28;;
60935;SDS011;46804;51.786;19.520;2024-01-15T16:54:06;15.30;;;6.28;;
60935;SDS011;46804;51.786;19.520;2024-01-15T16:58:08;9.40;;;4.25;;
60935;SDS011;46804;51.786;19.520;2024-01-15T17:02:09;9.50;;;5.00;;
60935;SDS011;46804;51.786;19.520;2024-01-15T17:06:09;8.38;;;4.13;;
60935;SDS011;46804;51.786;19.520;2024-01-15T17:10:10;7.50;;;4.20;;
60935;SDS011;46804;51.786;19.520;2024-01-15T17:14:11;7.95;;;5.38;;
60935;SDS011;46804;51.786;19.520;2024-01-15T17:18:12;9.80;;;5.65;;
60935;SDS011;46804;51.786;19.520;2024-01-15T17:22:13;12.43;;;4.55;;
60935;SDS011;46804;51.786;19.520;2024-01-15T17:26:14;10.73;;;5.55;;
60935;SDS011;46804;51.786;19.520;2024-01-15T17:30:16;8.52;;;4.53;;
60935;SDS011;46804;51.786;19.520;2024-01-15T17:34:17;7.03;;;3.95;;
60935;SDS011;46804;51.786;19.520;2024-01-15T17:38:17;12.10;;;3.72;;
60935;SDS011;46804;51.786;19.520;2024-01-15T17:42:18;7.10;;;3.35;;
60935;SDS011;46804;51.786;19.520;2024-01-15T17:46:19;10.95;;;4.93;;
60935;SDS011;46804;51.786;19.520;2024-01-15T17:50:20;11.88;;;5.85;;
60935;SDS011;46804;51.786;19.520;2024-01-15T17:54:20;9.07;;;4.82;;
60935;SDS011;46804;51.786;19.520;2024-01-15T17:58:21;7.22;;;4.18;;
60935;SDS011;46804;51.786;19.520;2024-01-15T18:02:22;11.07;;;4.38;;
60935;SDS011;46804;51.786;19.520;2024-01-15T18:06:23;13.88;;;5.00;;
60935;SDS011;46804;51.786;19.520;2024-01-15T18:10:24;6.88;;;3.70;;
60935;SDS011;46804;51.786;19.520;2024-01-15T18:14:25;9.40;;;4.32;;
60935;SDS011;46804;51.786;19.520;2024-01-15T18:18:26;5.43;;;3.78;;
60935;SDS011;46804;51.786;19.520;2024-01-15T18:22:27;8.07;;;4.57;;
60935;SDS011;46804;51.786;19.520;2024-01-15T18:26:28;4.10;;;2.42;;
60935;SDS011;46804;51.786;19.520;2024-01-15T18:30:29;5.43;;;2.88;;
60935;SDS011;46804;51.786;19.520;2024-01-15T18:34:30;5.18;;;2.83;;
60935;SDS011;46804;51.786;19.520;2024-01-15T18:38:31;2.60;;;2.00;;
60935;SDS011;46804;51.786;19.520;2024-01-15T18:42:34;9.00;;;3.20;;
60935;SDS011;46804;51.786;19.520;2024-01-15T18:46:35;4.35;;;2.40;;
60935;SDS011;46804;51.786;19.520;2024-01-15T18:50:36;7.97;;;3.17;;
60935;SDS011;46804;51.786;19.520;2024-01-15T18:54:37;7.97;;;3.88;;
60935;SDS011;46804;51.786;19.520;2024-01-15T18:58:39;6.53;;;3.87;;
60935;SDS011;46804;51.786;19.520;2024-01-15T19:02:43;5.45;;;3.28;;
60935;SDS011;46804;51.786;19.520;2024-01-15T19:06:44;7.10;;;4.30;;
60935;SDS011;46804;51.786;19.520;2024-01-15T19:10:45;11.93;;;4.32;;
60935;SDS011;46804;51.786;19.520;2024-01-15T19:14:46;6.90;;;4.57;;
60935;SDS011;46804;51.786;19.520;2024-01-15T19:18:50;4.93;;;2.83;;
60935;SDS011;46804;51.786;19.520;2024-01-15T19:22:52;5.18;;;3.22;;
60935;SDS011;46804;51.786;19.520;2024-01-15T19:26:53;3.53;;;2.25;;
60935;SDS011;46804;51.786;19.520;2024-01-15T19:30:54;5.63;;;2.65;;
60935;SDS011;46804;51.786;19.520;2024-01-15T19:34:55;3.85;;;2.88;;
60935;SDS011;46804;51.786;19.520;2024-01-15T19:38:56;4.55;;;2.35;;
60935;SDS011;46804;51.786;19.520;2024-01-15T19:42:57;5.85;;;2.13;;
60935;SDS011;46804;51.786;19.520;2024-01-15T19:46:57;7.90;;;2.83;;
60935;SDS011;46804;51.786;19.520;2024-01-15T19:50:58;4.50;;;2.80;;
60935;SDS011;46804;51.786;19.520;2024-01-15T19:54:59;4.00;;;2.50;;
60935;SDS011;46804;51.786;19.520;2024-01-15T19:59:00;5.88;;;2.80;;
60935;SDS011;46804;51.786;19.520;2024-01-15T20:03:01;4.03;;;2.55;;
60935;SDS011;46804;51.786;19.520;2024-01-15T20:07:02;3.97;;;2.53;;
60935;SDS011;46804;51.786;19.520;2024-01-15T20:11:03;4.05;;;2.08;;
60935;SDS011;46804;51.786;19.520;2024-01-15T20:15:04;3.78;;;2.47;;
60935;SDS011;46804;51.786;19.520;2024-01-15T20:19:05;2.00;;;1.65;;
60935;SDS011;46804;51.786;19.520;2024-01-15T20:23:07;3.53;;;2.13;;
60935;SDS011;46804;51.786;19.520;2024-01-15T20:27:09;2.95;;;2.08;;
60935;SDS011;46804;51.786;19.520;2024-01-15T20:31:10;2.45;;;2.05;;
60935;SDS011;46804;51.786;19.520;2024-01-15T20:35:11;7.03;;;2.47;;
60935;SDS011;46804;51.786;19.520;2024-01-15T20:39:12;2.60;;;1.80;;
60935;SDS011;46804;51.786;19.520;2024-01-15T20:43:12;2.50;;;1.67;;
60935;SDS011;46804;51.786;19.520;2024-01-15T20:47:13;1.75;;;1.55;;
60935;SDS011;46804;51.786;19.520;2024-01-15T20:51:14;1.73;;;1.50;;
60935;SDS011;46804;51.786;19.520;2024-01-15T20:55:15;1.63;;;1.17;;
60935;SDS011;46804;51.786;19.520;2024-01-15T20:59:17;6.28;;;2.13;;
60935;SDS011;46804;51.786;19.520;2024-01-15T21:03:17;4.65;;;1.77;;
60935;SDS011;46804;51.786;19.520;2024-01-15T21:07:18;1.40;;;1.30;;
60935;SDS011;46804;51.786;19.520;2024-01-15T21:11:19;4.47;;;1.95;;
60935;SDS011;46804;51.786;19.520;2024-01-15T21:15:20;2.35;;;1.67;;
60935;SDS011;46804;51.786;19.520;2024-01-15T21:19:21;2.75;;;1.70;;
60935;SDS011;46804;51.786;19.520;2024-01-15T21:23:23;2.97;;;1.45;;
60935;SDS011;46804;51.786;19.520;2024-01-15T21:27:25;1.90;;;1.60;;
60935;SDS011;46804;51.786;19.520;2024-01-15T21:31:27;3.90;;;1.95;;
60935;SDS011;46804;51.786;19.520;2024-01-15T21:35:29;5.82;;;2.50;;
60935;SDS011;46804;51.786;19.520;2024-01-15T21:39:30;4.78;;;3.08;;
60935;SDS011;46804;51.786;19.520;2024-01-15T21:43:35;2.78;;;2.35;;
60935;SDS011;46804;51.786;19.520;2024-01-15T21:47:37;3.13;;;2.35;;
60935;SDS011;46804;51.786;19.520;2024-01-15T21:51:38;4.07;;;2.08;;
60935;SDS011;46804;51.786;19.520;2024-01-15T21:55:40;1.65;;;1.55;;
60935;SDS011;46804;51.786;19.520;2024-01-15T21:59:40;6.28;;;2.70;;
60935;SDS011;46804;51.786;19.520;2024-01-15T22:03:42;5.13;;;2.55;;
60935;SDS011;46804;51.786;19.520;2024-01-15T22:07:43;6.50;;;2.42;;
60935;SDS011;46804;51.786;19.520;2024-01-15T22:11:44;3.20;;;2.35;;
60935;SDS011;46804;51.786;19.520;2024-01-15T22:15:45;3.72;;;2.70;;
60935;SDS011;46804;51.786;19.520;2024-01-15T22:19:46;3.20;;;2.33;;
60935;SDS011;46804;51.786;19.520;2024-01-15T22:23:48;3.58;;;2.60;;
60935;SDS011;46804;51.786;19.520;2024-01-15T22:27:49;5.60;;;2.22;;
60935;SDS011;46804;51.786;19.520;2024-01-15T22:31:50;11.25;;;2.85;;
60935;SDS011;46804;51.786;19.520;2024-01-15T22:35:51;5.68;;;3.30;;
60935;SDS011;46804;51.786;19.520;2024-01-15T22:39:52;3.42;;;2.35;;
60935;SDS011;46804;51.786;19.520;2024-01-15T22:43:53;5.95;;;1.92;;
60935;SDS011;46804;51.786;19.520;2024-01-15T22:47:54;3.10;;;1.60;;
60935;SDS011;46804;51.786;19.520;2024-01-15T22:51:56;7.43;;;2.03;;
60935;SDS011;46804;51.786;19.520;2024-01-15T22:55:57;5.43;;;2.67;;
60935;SDS011;46804;51.786;19.520;2024-01-15T23:00:03;3.33;;;2.30;;
60935;SDS011;46804;51.786;19.520;2024-01-15T23:04:20;4.95;;;2.60;;
60935;SDS011;46804;51.786;19.520;2024-01-15T23:08:22;3.35;;;1.80;;
60935;SDS011;46804;51.786;19.520;2024-01-15T23:12:23;4.97;;;2.88;;
60935;SDS011;46804;51.786;19.520;2024-01-15T23:16:25;2.38;;;1.95;;
60935;SDS011;46804;51.786;19.520;2024-01-15T23:20:26;8.13;;;1.83;;
60935;SDS011;46804;51.786;19.520;2024-01-15T23:24:27;2.17;;;1.77;;
60935;SDS011;46804;51.786;19.520;2024-01-15T23:28:27;2.53;;;2.05;;
60935;SDS011;46804;51.786;19.520;2024-01-15T23:32:28;5.28;;;2.55;;
60935;SDS011;46804;51.786;19.520;2024-01-15T23:36:29;3.25;;;2.75;;
60935;SDS011;46804;51.786;19.520;2024-01-15T23:40:29;2.95;;;1.83;;
60935;SDS011;46804;51.786;19.520;2024-01-15T23:44:30;4.28;;;2.28;;